Time;durP1;ratioP1;P1;durP2;ratioP2;P2;SDS_P1;SDS_P2;PMS_P1;PMS_P2;Temp;Humidity;BMP_temperature;BMP_pressure;BME280_temperature;BME280_humidity;BME280_pressure;Samples;Min_cycle;Max_cycle;Signal;HPM_P1;HPM_P2
2021/07/18 00:00:30;;;;;;;7.60;2.75;;;;;;;19.25;nan;100920.56;4969275;28;20047;-80
2021/07/18 00:02:55;;;;;;;10.10;3.15;;;;;;;19.21;nan;100922.50;4990248;28;20101;-79
2021/07/18 00:05:20;;;;;;;6.30;2.88;;;;;;;19.15;nan;100913.81;4989611;28;20033;-79
2021/07/18 00:07:46;;;;;;;9.05;3.25;;;;;;;19.11;nan;100913.06;4987748;28;20757;-80
2021/07/18 00:10:12;;;;;;;9.65;3.20;;;;;;;19.09;nan;100922.91;4971932;28;20101;-79
2021/07/18 00:12:38;;;;;;;11.07;2.53;;;;;;;19.12;nan;100919.25;4981291;28;20077;-79
2021/07/18 00:15:07;;;;;;;7.10;3.10;;;;;;;19.07;nan;100921.22;4954023;28;20077;-79
2021/07/18 00:17:37;;;;;;;8.85;3.10;;;;;;;19.05;nan;100923.97;4986681;28;20062;-79
2021/07/18 00:20:04;;;;;;;9.05;3.35;;;;;;;19.07;nan;100927.44;4990714;28;20042;-79
2021/07/18 00:22:29;;;;;;;8.32;3.53;;;;;;;19.03;nan;100925.81;4951311;28;20457;-79
2021/07/18 00:24:55;;;;;;;9.88;3.28;;;;;;;19.00;nan;100925.94;4976167;28;20045;-79
2021/07/18 00:27:20;;;;;;;7.90;3.25;;;;;;;19.00;nan;100924.13;4972236;28;20050;-79
2021/07/18 00:29:46;;;;;;;10.45;3.58;;;;;;;18.97;nan;100920.69;4986451;28;20034;-79
2021/07/18 00:32:11;;;;;;;9.95;3.35;;;;;;;18.96;nan;100919.81;4971187;28;20070;-79
2021/07/18 00:34:36;;;;;;;10.65;3.38;;;;;;;18.93;nan;100921.72;4970754;28;20046;-79
2021/07/18 00:37:02;;;;;;;7.85;3.45;;;;;;;18.87;nan;100913.91;4951471;28;20041;-78
2021/07/18 00:39:27;;;;;;;8.15;3.53;;;;;;;18.81;nan;100914.97;4973324;28;20043;-79
2021/07/18 00:41:52;;;;;;;9.90;4.07;;;;;;;18.77;nan;100908.00;4990398;28;20037;-79
2021/07/18 00:44:18;;;;;;;10.32;2.90;;;;;;;18.72;nan;100908.13;4990262;28;20054;-79
2021/07/18 00:46:43;;;;;;;8.25;3.40;;;;;;;18.67;nan;100902.03;4970843;28;20042;-79
2021/07/18 00:49:08;;;;;;;7.28;2.60;;;;;;;18.59;nan;100907.66;4989318;28;20101;-79
2021/07/18 00:51:34;;;;;;;6.80;3.22;;;;;;;18.57;nan;100913.97;4988463;28;20117;-79
2021/07/18 00:54:00;;;;;;;10.85;3.47;;;;;;;18.58;nan;100913.94;4968951;28;20054;-79
2021/07/18 00:56:25;;;;;;;6.20;3.33;;;;;;;18.55;nan;100910.50;4989340;28;20041;-79
2021/07/18 00:58:54;;;;;;;16.67;3.53;;;;;;;18.53;nan;100910.53;4969737;28;20038;-79
2021/07/18 01:01:20;;;;;;;8.73;3.13;;;;;;;18.50;nan;100913.31;4972230;28;20117;-80
2021/07/18 01:03:46;;;;;;;11.10;3.63;;;;;;;18.49;nan;100908.88;4970402;28;20601;-79
2021/07/18 01:06:11;;;;;;;8.48;3.05;;;;;;;18.50;nan;100916.00;4972837;28;20133;-79
2021/07/18 01:08:36;;;;;;;8.80;3.50;;;;;;;18.44;nan;100915.31;4969842;28;20042;-79
2021/07/18 01:11:02;;;;;;;7.03;3.47;;;;;;;18.49;nan;100914.22;4969305;28;20039;-79
2021/07/18 01:13:27;;;;;;;6.53;2.88;;;;;;;18.44;nan;100910.81;4989972;28;20042;-79
2021/07/18 01:15:52;;;;;;;7.90;3.40;;;;;;;18.41;nan;100905.59;4986072;28;20102;-79
2021/07/18 01:18:18;;;;;;;6.05;2.92;;;;;;;18.37;nan;100906.63;4956791;28;20077;-80
2021/07/18 01:20:44;;;;;;;7.03;3.00;;;;;;;18.37;nan;100904.81;4987094;28;20039;-79
2021/07/18 01:23:09;;;;;;;7.05;2.90;;;;;;;18.36;nan;100919.09;4972489;28;20049;-79
2021/07/18 01:25:35;;;;;;;6.00;2.90;;;;;;;18.34;nan;100920.97;4987157;28;20036;-79
2021/07/18 01:28:08;;;;;;;12.77;3.50;;;;;;;18.29;nan;100917.56;4989870;28;20092;-80
2021/07/18 01:30:34;;;;;;;7.32;3.28;;;;;;;18.24;nan;100914.16;4967665;28;20039;-79
2021/07/18 01:32:59;;;;;;;4.95;2.85;;;;;;;18.20;nan;100914.31;4988435;28;20051;-79
2021/07/18 01:35:27;;;;;;;8.23;3.25;;;;;;;18.17;nan;100908.13;4990026;28;20033;-79
2021/07/18 01:37:52;;;;;;;8.10;3.05;;;;;;;18.15;nan;100911.75;4970109;28;20074;-80
2021/07/18 01:40:17;;;;;;;8.55;3.38;;;;;;;18.13;nan;100908.25;4988987;28;20089;-79
2021/07/18 01:42:43;;;;;;;8.50;3.60;;;;;;;18.10;nan;100908.38;4976406;28;20090;-80
2021/07/18 01:45:09;;;;;;;7.43;3.00;;;;;;;18.00;nan;100915.81;4988696;28;20046;-80
2021/07/18 01:47:34;;;;;;;6.85;3.25;;;;;;;17.94;nan;100919.50;4969705;28;20047;-80
2021/07/18 01:49:59;;;;;;;9.20;3.13;;;;;;;17.90;nan;100912.53;4991861;28;20170;-80
2021/07/18 01:52:25;;;;;;;7.22;2.88;;;;;;;17.89;nan;100921.47;4989292;28;20057;-80
2021/07/18 01:54:53;;;;;;;6.82;3.03;;;;;;;17.88;nan;100926.84;4969305;28;20045;-80
2021/07/18 01:57:19;;;;;;;6.53;2.95;;;;;;;17.84;nan;100923.41;4990336;28;20060;-80
2021/07/18 01:59:45;;;;;;;8.00;2.90;;;;;;;17.81;nan;100920.81;4986453;28;20035;-80
2021/07/18 02:02:11;;;;;;;13.32;3.22;;;;;;;17.74;nan;100925.44;4986406;28;20031;-80
2021/07/18 02:04:37;;;;;;;7.18;2.95;;;;;;;17.75;nan;100915.63;4989797;28;20069;-80
2021/07/18 02:07:03;;;;;;;6.15;3.20;;;;;;;17.72;nan;100921.06;4966151;28;20386;-79
2021/07/18 02:09:29;;;;;;;10.38;2.83;;;;;;;17.69;nan;100923.81;4986767;28;20074;-79
2021/07/18 02:11:54;;;;;;;7.40;3.08;;;;;;;17.67;nan;100923.00;4974848;28;20032;-79
2021/07/18 02:14:20;;;;;;;8.07;3.38;;;;;;;17.62;nan;100925.78;4990430;28;20113;-79
2021/07/18 02:16:45;;;;;;;10.13;3.42;;;;;;;17.62;nan;100924.91;4993173;28;20045;-79
2021/07/18 02:19:10;;;;;;;8.68;3.75;;;;;;;17.59;nan;100925.88;4954300;28;20042;-79
2021/07/18 02:21:40;;;;;;;8.30;3.28;;;;;;;17.49;nan;100929.72;4991403;28;20049;-79
2021/07/18 02:24:06;;;;;;;9.68;2.80;;;;;;;17.49;nan;100921.72;4974269;28;20045;-79
2021/07/18 02:26:31;;;;;;;9.52;3.00;;;;;;;17.48;nan;100918.19;4991507;28;20031;-79
2021/07/18 02:28:57;;;;;;;8.63;3.60;;;;;;;17.45;nan;100934.28;4973716;28;20493;-80
2021/07/18 02:31:23;;;;;;;9.45;3.25;;;;;;;17.41;nan;100929.06;4991867;28;20105;-79
2021/07/18 02:33:48;;;;;;;9.63;3.33;;;;;;;17.38;nan;100924.69;4990996;28;20034;-79
2021/07/18 02:36:14;;;;;;;7.70;3.30;;;;;;;17.31;nan;100923.97;4971266;28;20191;-79
2021/07/18 02:38:39;;;;;;;6.38;3.17;;;;;;;17.28;nan;100915.19;4974667;28;20054;-79
2021/07/18 02:41:04;;;;;;;7.93;3.00;;;;;;;17.25;nan;100921.50;4993372;28;20058;-79
2021/07/18 02:43:30;;;;;;;6.28;3.40;;;;;;;17.25;nan;100923.28;4992857;28;20049;-79
2021/07/18 02:45:55;;;;;;;8.95;3.25;;;;;;;17.23;nan;100915.31;4973223;28;20038;-79
2021/07/18 02:48:21;;;;;;;9.77;3.72;;;;;;;17.24;nan;100916.22;4956421;28;20035;-79
2021/07/18 02:50:46;;;;;;;11.82;4.53;;;;;;;17.25;nan;100917.97;4993013;28;20039;-79
2021/07/18 02:53:12;;;;;;;6.25;3.17;;;;;;;17.26;nan;100917.91;4972644;28;20073;-79
2021/07/18 02:55:37;;;;;;;9.60;3.33;;;;;;;17.27;nan;100918.78;4992219;28;20485;-79
2021/07/18 02:58:03;;;;;;;6.15;2.78;;;;;;;17.25;nan;100917.97;4955647;28;20125;-79
2021/07/18 03:00:28;;;;;;;7.18;3.00;;;;;;;17.25;nan;100920.63;4991678;28;20042;-79
2021/07/18 03:02:54;;;;;;;7.35;3.15;;;;;;;17.20;nan;100926.06;4971499;28;20046;-79
2021/07/18 03:05:19;;;;;;;10.25;3.28;;;;;;;17.25;nan;100925.97;4989127;28;20039;-79
2021/07/18 03:07:46;;;;;;;8.13;3.50;;;;;;;17.19;nan;100929.66;4995067;28;20050;-79
2021/07/18 03:10:13;;;;;;;9.32;3.10;;;;;;;17.19;nan;100928.81;4974356;28;20686;-79
2021/07/18 03:12:38;;;;;;;9.05;2.92;;;;;;;17.19;nan;100936.81;4991425;28;20042;-79
2021/07/18 03:15:13;;;;;;;5.68;3.30;;;;;;;17.11;nan;100936.09;4984736;28;20405;-79
2021/07/18 03:17:39;;;;;;;7.07;3.30;;;;;;;17.07;nan;100928.19;4975328;28;20370;-79
2021/07/18 03:20:06;;;;;;;9.90;3.50;;;;;;;17.04;nan;100933.63;4972374;28;20023;-79
2021/07/18 03:22:34;;;;;;;7.32;3.47;;;;;;;16.98;nan;100933.78;4969439;28;20046;-79
2021/07/18 03:25:00;;;;;;;9.30;4.00;;;;;;;16.93;nan;100935.69;4973442;28;20046;-79
2021/07/18 03:27:26;;;;;;;8.70;3.33;;;;;;;16.91;nan;100941.97;4989068;28;20101;-79
2021/07/18 03:29:51;;;;;;;8.85;4.13;;;;;;;16.88;nan;100937.59;4971872;28;20485;-79
2021/07/18 03:32:16;;;;;;;6.43;3.45;;;;;;;16.87;nan;100943.84;4990907;28;20072;-79
2021/07/18 03:34:42;;;;;;;8.05;3.45;;;;;;;16.86;nan;100950.09;4971423;28;20453;-79
2021/07/18 03:37:07;;;;;;;7.07;3.58;;;;;;;16.84;nan;100952.78;4987332;28;20035;-79
2021/07/18 03:39:33;;;;;;;10.50;3.80;;;;;;;16.84;nan;100949.25;4975301;28;20481;-79
2021/07/18 03:41:58;;;;;;;6.60;3.45;;;;;;;16.81;nan;100952.00;4989322;28;20050;-79
2021/07/18 03:44:24;;;;;;;7.22;3.67;;;;;;;16.82;nan;100951.06;4975439;28;20038;-79
2021/07/18 03:49:16;;;;;;;7.20;3.15;;;;;;;16.81;nan;100952.00;4981706;28;20046;-79
2021/07/18 03:51:42;;;;;;;8.85;3.63;;;;;;;16.80;nan;100951.13;4980896;28;20048;-79
2021/07/18 03:54:07;;;;;;;10.90;3.63;;;;;;;16.80;nan;100950.25;4967258;28;20038;-79
2021/07/18 03:56:33;;;;;;;6.82;3.00;;;;;;;16.82;nan;100951.06;4999626;28;20034;-79
2021/07/18 03:58:58;;;;;;;7.93;3.33;;;;;;;16.82;nan;100956.41;4982649;28;20031;-79
2021/07/18 04:01:23;;;;;;;8.05;3.38;;;;;;;16.84;nan;100958.13;4999094;28;20359;-79
2021/07/18 04:03:49;;;;;;;6.45;3.60;;;;;;;16.90;nan;100967.78;4999615;28;20401;-79
2021/07/18 04:06:18;;;;;;;4.90;3.00;;;;;;;16.99;nan;100959.53;4981499;28;20034;-79
2021/07/18 04:08:44;;;;;;;8.00;3.25;;;;;;;17.04;nan;100956.75;4982726;28;20042;-79
2021/07/18 04:11:12;;;;;;;8.02;3.40;;;;;;;17.08;nan;100961.97;4999946;28;20041;-80
2021/07/18 04:13:38;;;;;;;8.50;2.95;;;;;;;17.15;nan;100956.47;4999783;28;20095;-79
2021/07/18 04:16:05;;;;;;;7.80;3.47;;;;;;;17.24;nan;100957.09;4999770;28;20041;-79
2021/07/18 04:18:31;;;;;;;5.40;3.15;;;;;;;17.37;nan;100962.97;4999441;28;20036;-79
2021/07/18 04:20:56;;;;;;;5.90;3.08;;;;;;;17.52;nan;100962.53;4982512;28;20061;-79
2021/07/18 04:23:23;;;;;;;9.60;3.13;;;;;;;17.67;nan;100969.25;4999754;28;20477;-79
2021/07/18 04:25:48;;;;;;;7.88;3.10;;;;;;;17.72;nan;100971.78;5001035;28;20030;-80
2021/07/18 04:28:14;;;;;;;6.93;2.97;;;;;;;17.77;nan;100969.84;5001999;28;20046;-79
2021/07/18 04:30:40;;;;;;;6.45;3.05;;;;;;;17.77;nan;100958.31;5001641;28;20525;-79
2021/07/18 04:33:05;;;;;;;7.50;3.40;;;;;;;17.90;nan;100971.28;4983817;28;20100;-79
2021/07/18 04:35:31;;;;;;;7.55;3.13;;;;;;;17.98;nan;100975.53;4999886;28;20038;-79
2021/07/18 04:37:56;;;;;;;8.45;3.20;;;;;;;18.01;nan;100972.75;4983672;28;20034;-79
2021/07/18 04:40:22;;;;;;;10.88;3.10;;;;;;;18.09;nan;100968.06;4983496;28;20117;-80
2021/07/18 04:42:47;;;;;;;8.95;3.35;;;;;;;18.17;nan;100976.72;5006668;28;20097;-79
2021/07/18 04:45:13;;;;;;;5.82;2.67;;;;;;;18.17;nan;100972.22;5007058;28;20097;-80
2021/07/18 04:47:45;;;;;;;8.18;2.75;;;;;;;18.26;nan;100980.88;4971707;28;20038;-80
2021/07/18 04:50:11;;;;;;;8.43;3.28;;;;;;;18.22;nan;100980.13;5001399;28;20074;-79
2021/07/18 04:52:36;;;;;;;9.32;3.35;;;;;;;18.23;nan;100981.84;5000666;28;20045;-79
2021/07/18 04:55:02;;;;;;;10.48;3.42;;;;;;;18.17;nan;100976.72;4985706;28;20050;-78
2021/07/18 04:57:27;;;;;;;9.60;3.33;;;;;;;18.25;nan;100974.66;4967744;28;20034;-79
2021/07/18 04:59:52;;;;;;;6.07;3.10;;;;;;;18.17;nan;100972.22;5001200;28;20046;-78
2021/07/18 05:02:18;;;;;;;6.00;2.60;;;;;;;18.27;nan;100979.97;4983824;28;20042;-79
2021/07/18 05:04:43;;;;;;;6.55;2.65;;;;;;;18.24;nan;100985.44;5001057;28;20046;-79
2021/07/18 05:07:09;;;;;;;5.57;3.20;;;;;;;18.13;nan;100988.41;4999982;28;20038;-79
2021/07/18 05:09:35;;;;;;;9.50;3.00;;;;;;;18.07;nan;100985.91;5001163;28;20042;-78
2021/07/18 05:12:00;;;;;;;9.15;2.92;;;;;;;18.12;nan;100989.31;5000120;28;20052;-79
2021/07/18 05:14:26;;;;;;;7.88;2.90;;;;;;;18.17;nan;100990.06;4982708;28;20042;-78
2021/07/18 05:16:51;;;;;;;6.97;3.28;;;;;;;18.24;nan;100994.31;4999579;28;20092;-80
2021/07/18 05:19:16;;;;;;;9.38;3.38;;;;;;;18.22;nan;100993.47;4999972;28;20046;-79
2021/07/18 05:21:41;;;;;;;8.23;3.10;;;;;;;18.25;nan;100987.16;5000083;28;20034;-79
2021/07/18 05:24:07;;;;;;;6.18;3.15;;;;;;;18.24;nan;100994.31;4999816;28;20046;-79
2021/07/18 05:26:32;;;;;;;7.13;3.15;;;;;;;18.12;nan;100994.66;4999229;28;20072;-80
2021/07/18 05:28:57;;;;;;;7.13;3.28;;;;;;;18.04;nan;100984.22;4998726;28;20086;-80
2021/07/18 05:31:23;;;;;;;5.93;2.83;;;;;;;18.01;nan;100996.78;4998299;28;20456;-80
2021/07/18 05:33:48;;;;;;;11.52;2.80;;;;;;;17.94;nan;100996.09;4981851;28;20038;-79
2021/07/18 05:36:13;;;;;;;10.73;2.97;;;;;;;18.03;nan;100989.63;4999426;28;20571;-80
2021/07/18 05:38:39;;;;;;;10.55;3.08;;;;;;;18.09;nan;100994.78;4998849;28;20038;-80
2021/07/18 05:41:05;;;;;;;7.32;3.10;;;;;;;18.21;nan;100994.41;4980681;28;20048;-80
2021/07/18 05:43:30;;;;;;;7.90;3.33;;;;;;;18.26;nan;100989.81;4998993;28;20536;-80
2021/07/18 05:45:56;;;;;;;6.15;2.85;;;;;;;18.35;nan;100988.63;4980293;28;20096;-81
2021/07/18 05:48:24;;;;;;;5.40;2.58;;;;;;;18.45;nan;100981.22;4980678;28;20049;-80
2021/07/18 05:50:52;;;;;;;8.65;2.90;;;;;;;18.53;nan;100984.50;4999916;28;20389;-80
2021/07/18 05:53:18;;;;;;;7.50;3.00;;;;;;;18.67;nan;100990.28;4999500;28;20034;-80
2021/07/18 05:55:43;;;;;;;9.60;3.30;;;;;;;18.79;nan;100997.06;4999128;28;20037;-80
2021/07/18 05:58:09;;;;;;;7.07;3.00;;;;;;;18.79;nan;100992.59;4981756;28;20066;-80
2021/07/18 06:00:34;;;;;;;5.93;2.50;;;;;;;18.80;nan;100980.97;4998238;28;20133;-80
2021/07/18 06:03:00;;;;;;;8.55;2.90;;;;;;;18.93;nan;100988.59;4996582;28;20038;-79
2021/07/18 06:05:25;;;;;;;6.38;2.53;;;;;;;19.00;nan;100996.34;4979875;28;20045;-80
2021/07/18 06:07:50;;;;;;;5.40;2.17;;;;;;;19.13;nan;100982.56;4982399;28;20105;-80
2021/07/18 06:10:16;;;;;;;7.15;2.50;;;;;;;19.19;nan;100988.56;4998962;28;20046;-80
2021/07/18 06:12:41;;;;;;;8.13;2.70;;;;;;;19.28;nan;100987.34;4979367;28;20042;-80
2021/07/18 06:15:07;;;;;;;9.32;2.85;;;;;;;19.35;nan;100996.06;4995905;28;20304;-80
2021/07/18 06:17:35;;;;;;;6.07;2.72;;;;;;;19.40;nan;100988.75;4979070;28;20117;-80
2021/07/18 06:20:03;;;;;;;8.43;2.95;;;;;;;19.44;nan;100979.66;4996623;28;20061;-80
2021/07/18 06:22:29;;;;;;;6.38;2.50;;;;;;;19.46;nan;100986.72;4997006;28;20082;-80
2021/07/18 06:24:54;;;;;;;5.93;2.15;;;;;;;19.52;nan;100988.31;4998292;28;20050;-80
2021/07/18 06:27:20;;;;;;;6.28;2.70;;;;;;;19.62;nan;100995.09;4997704;28;20423;-80
2021/07/18 06:29:45;;;;;;;5.90;2.60;;;;;;;19.70;nan;100992.13;4981419;28;20437;-80
2021/07/18 06:32:10;;;;;;;7.35;2.55;;;;;;;19.68;nan;100994.88;4998973;28;20489;-80
2021/07/18 06:34:36;;;;;;;5.47;2.33;;;;;;;19.74;nan;100998.28;4981055;28;20038;-79
2021/07/18 06:37:01;;;;;;;5.97;2.25;;;;;;;19.86;nan;101000.50;4981197;28;20034;-80
2021/07/18 06:39:26;;;;;;;8.70;2.67;;;;;;;19.95;nan;101004.63;4981196;28;20489;-80
2021/07/18 06:41:52;;;;;;;6.57;2.40;;;;;;;20.01;nan;100999.91;4997913;28;20038;-80
2021/07/18 06:44:18;;;;;;;4.22;2.42;;;;;;;20.06;nan;101000.59;4998663;28;20037;-80
2021/07/18 06:46:43;;;;;;;6.75;2.50;;;;;;;20.04;nan;101005.19;4981013;28;20042;-80
2021/07/18 06:49:08;;;;;;;5.55;2.63;;;;;;;20.11;nan;101008.47;4980838;28;20042;-80
2021/07/18 06:51:34;;;;;;;8.55;2.55;;;;;;;20.15;nan;101007.44;4981287;28;20480;-80
2021/07/18 06:53:59;;;;;;;6.15;2.78;;;;;;;20.21;nan;101004.50;4997759;28;20088;-80
2021/07/18 06:56:24;;;;;;;7.20;2.67;;;;;;;20.21;nan;101003.66;4998425;28;20034;-80
2021/07/18 06:58:50;;;;;;;7.38;2.58;;;;;;;20.28;nan;100994.44;4983958;28;20034;-80
2021/07/18 07:01:15;;;;;;;5.30;2.05;;;;;;;20.39;nan;101005.59;5002305;28;20422;-80
2021/07/18 07:03:41;;;;;;;5.57;2.40;;;;;;;20.43;nan;101003.66;4984696;28;20042;-80
2021/07/18 07:06:06;;;;;;;4.78;2.22;;;;;;;20.35;nan;101006.66;4984158;28;20054;-80
2021/07/18 07:08:31;;;;;;;8.25;2.75;;;;;;;20.39;nan;101007.41;5001647;28;20034;-80
2021/07/18 07:10:57;;;;;;;5.50;2.20;;;;;;;20.42;nan;101008.16;5002225;28;20080;-80
2021/07/18 07:13:22;;;;;;;5.07;2.30;;;;;;;20.52;nan;101004.19;4983904;28;20424;-80
2021/07/18 07:15:47;;;;;;;5.78;2.50;;;;;;;20.65;nan;101006.41;4984171;28;20481;-80
2021/07/18 07:18:13;;;;;;;3.45;2.05;;;;;;;20.73;nan;101012.34;5001867;28;20137;-80
2021/07/18 07:20:39;;;;;;;5.95;2.47;;;;;;;20.85;nan;101011.81;4984485;28;20045;-80
2021/07/18 07:23:04;;;;;;;5.78;2.40;;;;;;;20.97;nan;101010.44;5001651;28;20117;-80
2021/07/18 07:25:29;;;;;;;6.78;2.40;;;;;;;20.93;nan;101008.81;4984055;28;20049;-80
2021/07/18 07:27:55;;;;;;;7.07;2.85;;;;;;;20.94;nan;100995.34;4983858;28;20823;-80
2021/07/18 07:30:20;;;;;;;5.85;2.40;;;;;;;20.98;nan;101007.69;5001392;28;20415;-80
2021/07/18 07:32:46;;;;;;;6.63;1.98;;;;;;;21.07;nan;101003.75;5001304;28;20046;-80
2021/07/18 07:35:13;;;;;;;6.32;2.00;;;;;;;21.27;nan;101002.03;4983768;28;20098;-80
2021/07/18 07:37:39;;;;;;;6.75;2.55;;;;;;;21.36;nan;101007.00;5001628;28;20042;-80
2021/07/18 07:40:06;;;;;;;6.10;1.90;;;;;;;21.52;nan;101000.06;5001386;28;20034;-80
2021/07/18 07:42:32;;;;;;;4.50;2.20;;;;;;;21.69;nan;101001.97;4983745;28;20046;-80
2021/07/18 07:44:57;;;;;;;6.20;2.13;;;;;;;21.72;nan;100988.44;5000604;28;20049;-80
2021/07/18 07:47:23;;;;;;;4.68;1.67;;;;;;;21.85;nan;101003.03;4979466;28;20038;-80
2021/07/18 07:49:48;;;;;;;6.47;2.10;;;;;;;21.96;nan;100999.00;4983803;28;20092;-80
2021/07/18 07:52:14;;;;;;;5.18;2.00;;;;;;;22.07;nan;100986.78;4984501;28;20508;-80
2021/07/18 07:54:40;;;;;;;4.25;2.17;;;;;;;22.27;nan;100993.09;4997393;28;20456;-80
2021/07/18 07:57:06;;;;;;;6.10;2.30;;;;;;;22.48;nan;101001.94;5001268;28;20537;-80
2021/07/18 07:59:32;;;;;;;6.70;2.17;;;;;;;22.46;nan;101003.84;4984114;28;20049;-80
2021/07/18 08:01:58;;;;;;;6.70;1.73;;;;;;;22.51;nan;101007.19;4983746;28;20036;-80
2021/07/18 08:04:24;;;;;;;6.07;2.10;;;;;;;22.78;nan;101004.06;5000705;28;20504;-80
2021/07/18 08:06:50;;;;;;;4.88;2.33;;;;;;;22.84;nan;101007.31;5000882;28;20034;-80
2021/07/18 08:09:15;;;;;;;4.25;1.98;;;;;;;22.86;nan;100994.66;4983616;28;20053;-80
2021/07/18 08:11:40;;;;;;;5.20;1.77;;;;;;;22.87;nan;101003.59;5000717;28;20408;-80
2021/07/18 08:14:06;;;;;;;4.95;2.45;;;;;;;23.01;nan;100993.06;5000689;28;20062;-80
2021/07/18 08:16:31;;;;;;;5.68;1.98;;;;;;;23.14;nan;101006.78;4982476;28;20030;-80
2021/07/18 08:18:56;;;;;;;5.22;2.20;;;;;;;23.06;nan;101009.84;5000381;28;20039;-80
2021/07/18 08:21:22;;;;;;;6.07;2.30;;;;;;;23.00;nan;101010.13;5000493;28;20066;-80
2021/07/18 08:23:50;;;;;;;7.47;2.22;;;;;;;22.86;nan;101004.56;4982725;28;20034;-80
2021/07/18 08:26:19;;;;;;;3.83;1.73;;;;;;;23.06;nan;101009.84;4999339;28;20039;-80
2021/07/18 08:28:45;;;;;;;4.68;2.00;;;;;;;23.08;nan;101005.28;4994073;28;20046;-80
2021/07/18 08:31:11;;;;;;;5.95;2.00;;;;;;;23.22;nan;100998.31;4976117;28;20046;-80
2021/07/18 08:33:36;;;;;;;3.40;1.50;;;;;;;23.13;nan;101013.09;4982550;28;20441;-80
2021/07/18 08:36:01;;;;;;;5.13;1.92;;;;;;;22.96;nan;101013.91;4981584;28;20385;-80
2021/07/18 08:38:27;;;;;;;4.05;1.88;;;;;;;23.11;nan;100998.84;4989694;28;20057;-80
2021/07/18 08:40:54;;;;;;;6.38;2.03;;;;;;;23.38;nan;101005.50;4983333;28;20072;-80
2021/07/18 08:43:20;;;;;;;4.78;1.67;;;;;;;23.49;nan;100996.00;4999842;28;20038;-80
2021/07/18 08:45:47;;;;;;;6.07;2.00;;;;;;;23.87;nan;101007.47;4978677;28;20038;-80
2021/07/18 08:48:12;;;;;;;6.45;1.75;;;;;;;23.78;nan;100999.84;5004149;28;20098;-80
2021/07/18 08:50:37;;;;;;;5.13;1.98;;;;;;;23.70;nan;101004.75;4983753;28;20057;-80
2021/07/18 08:53:03;;;;;;;4.70;1.70;;;;;;;23.49;nan;101004.06;5005156;28;20089;-81
2021/07/18 08:55:31;;;;;;;4.30;1.73;;;;;;;23.43;nan;101002.56;5007160;28;20042;-81
2021/07/18 08:57:57;;;;;;;4.78;1.92;;;;;;;23.40;nan;100994.66;5007703;28;20033;-80
2021/07/18 09:00:23;;;;;;;3.97;1.80;;;;;;;23.53;nan;100995.75;5006416;28;20101;-81
2021/07/18 09:02:49;;;;;;;5.03;1.80;;;;;;;23.65;nan;100988.81;5007110;28;20047;-80
2021/07/18 09:05:14;;;;;;;5.88;1.73;;;;;;;23.67;nan;100996.84;5004650;28;20038;-81
2021/07/18 09:07:53;;;;;;;5.43;1.90;;;;;;;23.68;nan;100998.56;5002821;28;20072;-82
2021/07/18 09:10:28;;;;;;;7.50;2.03;;;;;;;23.69;nan;100989.56;4999011;28;20053;-80
2021/07/18 09:13:09;;;;;;;4.50;1.85;;;;;;;23.87;nan;100996.69;4998853;28;20038;-81
2021/07/18 09:15:38;;;;;;;4.00;1.67;;;;;;;23.99;nan;100982.50;5001333;28;20030;-81
2021/07/18 09:18:09;;;;;;;3.85;1.55;;;;;;;24.09;nan;100973.91;5003303;28;20452;-81
2021/07/18 09:20:40;;;;;;;4.78;1.75;;;;;;;23.91;nan;100987.44;4999778;28;20049;-81
2021/07/18 09:23:19;;;;;;;4.20;1.58;;;;;;;23.90;nan;100992.94;4997363;28;20516;-81
2021/07/18 09:25:46;;;;;;;6.72;1.55;;;;;;;24.18;nan;100987.78;4984218;28;20046;-81
2021/07/18 09:28:12;;;;;;;4.72;1.83;;;;;;;24.30;nan;100986.19;5000448;28;20038;-81
2021/07/18 09:30:38;;;;;;;3.50;1.33;;;;;;;24.37;nan;100981.34;4999530;28;20046;-81
2021/07/18 09:33:03;;;;;;;6.45;1.60;;;;;;;24.19;nan;100988.63;4996726;28;20035;-81
2021/07/18 09:35:28;;;;;;;11.98;2.10;;;;;;;24.16;nan;100988.81;5002139;28;20034;-81
2021/07/18 09:37:54;;;;;;;5.07;1.58;;;;;;;24.28;nan;100977.31;5000555;28;20030;-81
2021/07/18 09:40:23;;;;;;;4.07;1.30;;;;;;;24.34;nan;100986.88;5001212;28;20053;-81
2021/07/18 09:43:01;;;;;;;3.85;1.55;;;;;;;24.45;nan;100974.56;4995723;28;20034;-81
2021/07/18 09:45:32;;;;;;;6.90;2.00;;;;;;;24.46;nan;100970.91;4997412;28;20034;-81
2021/07/18 09:48:08;;;;;;;4.95;1.50;;;;;;;24.60;nan;100971.94;5001094;28;20070;-81
2021/07/18 09:50:39;;;;;;;5.85;1.58;;;;;;;24.64;nan;100970.81;4994305;28;20039;-81
2021/07/18 09:53:09;;;;;;;6.13;1.60;;;;;;;24.57;nan;100961.34;5005054;28;20042;-81
2021/07/18 09:55:35;;;;;;;4.03;1.33;;;;;;;24.73;nan;100961.31;4980546;28;20038;-80
2021/07/18 09:58:00;;;;;;;3.17;1.35;;;;;;;24.75;nan;100964.78;5001161;28;20045;-81
2021/07/18 10:00:56;;;;;;;7.50;1.80;;;;;;;24.96;nan;100973.47;4983500;28;20030;-82
2021/07/18 10:03:24;;;;;;;2.70;1.45;;;;;;;25.06;nan;100958.44;4982341;28;20054;-81
2021/07/18 10:06:05;;;;;;;3.47;1.20;;;;;;;25.28;nan;100958.03;4979395;28;20043;-81
2021/07/18 10:08:32;;;;;;;5.43;1.55;;;;;;;25.42;nan;100959.91;4985491;28;20041;-81
2021/07/18 10:10:57;;;;;;;3.90;1.60;;;;;;;25.12;nan;100958.06;5002842;28;20030;-81
2021/07/18 10:13:23;;;;;;;3.78;1.30;;;;;;;25.11;nan;100953.66;5004694;28;20034;-81
2021/07/18 10:15:49;;;;;;;4.10;1.58;;;;;;;25.21;nan;100956.69;5002064;28;20033;-81
2021/07/18 10:18:15;;;;;;;4.20;1.60;;;;;;;25.29;nan;100955.25;5000139;28;20497;-81
2021/07/18 10:20:41;;;;;;;4.35;1.40;;;;;;;25.39;nan;100938.47;4986633;28;20052;-81
2021/07/18 10:23:07;;;;;;;3.55;1.65;;;;;;;25.49;nan;100958.56;4987356;28;20034;-81
2021/07/18 10:25:33;;;;;;;4.88;1.65;;;;;;;25.52;nan;100956.56;4985802;28;20044;-81
2021/07/18 10:27:58;;;;;;;3.80;1.30;;;;;;;25.43;nan;100950.84;4984807;28;20054;-81
2021/07/18 10:30:24;;;;;;;3.55;1.30;;;;;;;25.67;nan;100948.44;4999801;28;20034;-81
2021/07/18 10:32:52;;;;;;;3.20;1.23;;;;;;;25.87;nan;100947.22;5004318;28;20042;-81
2021/07/18 10:35:20;;;;;;;2.78;1.40;;;;;;;25.95;nan;100942.19;5006572;28;20034;-81
2021/07/18 10:37:45;;;;;;;3.42;1.60;;;;;;;26.00;nan;100942.75;5007432;28;20619;-81
2021/07/18 10:40:12;;;;;;;5.63;1.60;;;;;;;25.86;nan;100942.75;4989914;28;20053;-81
2021/07/18 10:42:37;;;;;;;3.72;1.38;;;;;;;25.77;nan;100933.38;4987221;28;20110;-81
2021/07/18 10:45:22;;;;;;;4.07;1.75;;;;;;;25.75;nan;100938.91;4989678;28;20078;-81
2021/07/18 10:48:05;;;;;;;4.28;1.10;;;;;;;25.78;nan;100941.41;5004986;28;20038;-81
2021/07/18 10:50:46;;;;;;;2.95;1.10;;;;;;;25.96;nan;100938.50;5005422;28;20049;-82
2021/07/18 10:53:30;;;;;;;2.90;1.30;;;;;;;26.05;nan;100943.34;5003430;28;20098;-81
2021/07/18 10:55:57;;;;;;;2.70;1.30;;;;;;;26.14;nan;100940.03;4986730;28;20456;-81
2021/07/18 10:58:41;;;;;;;4.38;1.30;;;;;;;26.24;nan;100943.88;5007066;28;20053;-81
2021/07/18 11:01:33;;;;;;;4.45;1.67;;;;;;;26.42;nan;100935.53;4972748;28;20093;-81
2021/07/18 11:03:59;;;;;;;2.65;1.35;;;;;;;26.58;nan;100940.81;4990602;28;20051;-81
2021/07/18 11:06:29;;;;;;;3.72;1.65;;;;;;;26.61;nan;100936.06;4988982;28;20034;-81
2021/07/18 11:09:21;;;;;;;3.15;1.40;;;;;;;26.65;nan;100936.75;5004160;28;20034;-81
2021/07/18 11:11:49;;;;;;;3.45;1.52;;;;;;;26.67;nan;100941.09;4986084;28;20042;-81
2021/07/18 11:14:35;;;;;;;3.28;1.50;;;;;;;26.65;nan;100926.78;5005104;28;20034;-81
2021/07/18 11:17:10;;;;;;;4.32;1.77;;;;;;;26.74;nan;100929.81;4987689;28;20042;-81
2021/07/18 11:19:38;;;;;;;3.03;1.45;;;;;;;26.75;nan;100932.44;4986172;28;20042;-82
2021/07/18 11:22:08;;;;;;;3.72;1.48;;;;;;;26.62;nan;100916.16;5004961;28;20527;-81
2021/07/18 11:24:52;;;;;;;3.10;1.52;;;;;;;26.59;nan;100938.03;5004540;28;20578;-81
2021/07/18 11:27:31;;;;;;;3.63;1.40;;;;;;;26.58;nan;100930.84;4999222;28;20129;-82
2021/07/18 11:30:02;;;;;;;2.45;1.15;;;;;;;26.62;nan;100916.16;4999301;28;20030;-82
2021/07/18 11:32:30;;;;;;;3.35;1.50;;;;;;;26.91;nan;100910.59;5001571;28;20062;-82
2021/07/18 11:34:57;;;;;;;3.25;1.42;;;;;;;27.00;nan;100918.06;4994085;28;20041;-81
2021/07/18 11:37:24;;;;;;;3.40;1.48;;;;;;;26.92;nan;100912.31;4987488;28;20026;-81
2021/07/18 11:39:49;;;;;;;3.67;1.60;;;;;;;26.81;nan;100910.34;4988027;28;20038;-78
2021/07/18 11:42:17;;;;;;;2.50;1.35;;;;;;;26.76;nan;100917.06;4993660;28;20034;-79